createdAt,value
2017-03-06T00:01:01.362Z,0
2017-03-06T00:02:17.221Z,0
2017-03-06T00:03:31.228Z,0
2017-03-06T00:04:46.483Z,0
2017-03-06T00:06:00.985Z,0
2017-03-06T00:07:16.183Z,0
2017-03-06T00:08:30.907Z,0
2017-03-06T00:09:45.894Z,0
2017-03-06T00:11:00.259Z,0
2017-03-06T00:12:15.680Z,0
2017-03-06T00:13:31.755Z,0
2017-03-06T00:14:47.399Z,0
2017-03-06T00:16:02.067Z,0
2017-03-06T00:17:17.200Z,0
2017-03-06T00:18:33.106Z,0
2017-03-06T00:19:47.043Z,0
2017-03-06T00:21:01.855Z,0
2017-03-06T00:22:16.525Z,0
2017-03-06T00:23:32.012Z,0
2017-03-06T00:24:47.782Z,0
2017-03-06T00:26:02.922Z,0
2017-03-06T00:27:19.052Z,0
2017-03-06T00:28:34.729Z,0
2017-03-06T00:29:51.305Z,0
2017-03-06T00:31:07.601Z,0
2017-03-06T00:32:23.342Z,0
2017-03-06T00:33:39.425Z,0
2017-03-06T00:34:54.805Z,0
2017-03-06T00:36:41.877Z,0
2017-03-06T00:37:59.403Z,0
2017-03-06T00:39:16.075Z,0
2017-03-06T00:40:31.883Z,0
2017-03-06T00:41:47.778Z,0
2017-03-06T00:43:04.197Z,0
2017-03-06T00:44:20.129Z,0
2017-03-06T00:45:35.677Z,0
2017-03-06T00:46:53.767Z,0
2017-03-06T00:48:08.980Z,0
2017-03-06T00:49:23.512Z,0
2017-03-06T00:50:40.522Z,0
2017-03-06T00:51:55.166Z,0
2017-03-06T00:53:09.249Z,0
2017-03-06T00:54:25.718Z,0
2017-03-06T00:55:41.658Z,0
2017-03-06T00:56:57.740Z,0
2017-03-06T00:58:13.891Z,0
2017-03-06T00:59:29.450Z,0
2017-03-06T01:00:44.580Z,0
2017-03-06T01:01:59.177Z,0
2017-03-06T01:03:14.504Z,0
2017-03-06T01:04:29.304Z,0
2017-03-06T01:05:44.563Z,0
2017-03-06T01:06:59.051Z,0
2017-03-06T01:08:14.303Z,0
2017-03-06T01:09:28.454Z,0
2017-03-06T01:10:44.684Z,0
2017-03-06T01:12:00.467Z,0
2017-03-06T01:13:15.341Z,0
2017-03-06T01:14:30.811Z,0
2017-03-06T01:15:46.482Z,0
2017-03-06T01:17:01.011Z,0
2017-03-06T01:18:16.074Z,0
2017-03-06T01:19:30.218Z,0
2017-03-06T01:20:45.803Z,0
2017-03-06T01:22:00.486Z,0
2017-03-06T01:23:15.248Z,0
2017-03-06T01:24:30.674Z,0
2017-03-06T01:25:46.193Z,0
2017-03-06T01:27:01.815Z,0
2017-03-06T01:28:17.254Z,0
2017-03-06T01:29:34.630Z,0
2017-03-06T01:30:50.312Z,0
2017-03-06T01:32:04.955Z,0
2017-03-06T01:33:21.098Z,0
2017-03-06T01:34:36.553Z,0
2017-03-06T01:35:50.613Z,0
2017-03-06T01:37:06.108Z,0
2017-03-06T01:38:20.081Z,0
2017-03-06T01:39:35.007Z,0
2017-03-06T01:40:50.279Z,0
2017-03-06T01:42:05.721Z,0
2017-03-06T01:43:20.254Z,0
2017-03-06T01:44:36.228Z,0
2017-03-06T01:45:52.205Z,0
2017-03-06T01:47:07.731Z,0
2017-03-06T01:48:22.367Z,0
2017-03-06T01:49:37.705Z,0
2017-03-06T01:50:51.642Z,0
2017-03-06T01:52:07.060Z,0
2017-03-06T01:53:21.742Z,0
2017-03-06T01:54:36.687Z,0
2017-03-06T01:55:52.488Z,0
2017-03-06T01:57:09.695Z,0
2017-03-06T01:58:24.016Z,0
2017-03-06T01:59:38.459Z,0
2017-03-06T02:00:53.559Z,0
2017-03-06T02:02:07.720Z,0
2017-03-06T02:03:21.958Z,0
2017-03-06T02:04:38.408Z,0
2017-03-06T02:05:52.350Z,0
2017-03-06T02:07:06.546Z,0
2017-03-06T02:08:21.741Z,0
2017-03-06T02:09:37.097Z,0
2017-03-06T02:10:51.564Z,0
2017-03-06T02:12:06.091Z,0
2017-03-06T02:13:20.432Z,0
2017-03-06T02:14:35.570Z,0
2017-03-06T02:15:49.962Z,0
2017-03-06T02:17:04.129Z,0
2017-03-06T02:18:18.208Z,0
2017-03-06T02:19:32.790Z,0
2017-03-06T02:20:47.171Z,0
2017-03-06T02:22:02.370Z,0
2017-03-06T02:23:17.189Z,0
2017-03-06T02:24:31.365Z,0
2017-03-06T02:25:45.585Z,0
2017-03-06T02:26:59.798Z,0
2017-03-06T02:28:13.800Z,0
2017-03-06T02:29:28.458Z,0
2017-03-06T02:30:42.473Z,0
2017-03-06T02:31:56.602Z,0
2017-03-06T02:33:11.133Z,0
2017-03-06T02:34:25.293Z,0
2017-03-06T02:35:39.657Z,0
2017-03-06T02:36:54.299Z,0
2017-03-06T02:38:08.394Z,0
2017-03-06T02:39:23.353Z,0
2017-03-06T02:40:38.134Z,0
2017-03-06T02:41:52.328Z,0
2017-03-06T02:43:06.759Z,0
2017-03-06T02:44:21.925Z,0
2017-03-06T02:45:37.689Z,0
2017-03-06T02:46:52.344Z,0
2017-03-06T02:48:06.491Z,0
2017-03-06T02:49:20.679Z,0
2017-03-06T02:50:35.037Z,0
2017-03-06T02:51:49.250Z,0
2017-03-06T02:53:03.631Z,0
2017-03-06T02:54:18.366Z,0
2017-03-06T02:55:33.331Z,0
2017-03-06T02:56:47.285Z,0
2017-03-06T02:58:01.558Z,0
2017-03-06T02:59:15.645Z,0
2017-03-06T03:00:30.264Z,0
2017-03-06T03:01:45.497Z,0
2017-03-06T03:02:59.415Z,0
2017-03-06T03:04:13.628Z,0
2017-03-06T03:05:27.606Z,0
2017-03-06T03:06:42.903Z,0
2017-03-06T03:07:57.294Z,0
2017-03-06T03:09:12.294Z,0
2017-03-06T03:10:26.776Z,0
2017-03-06T03:11:41.143Z,0
2017-03-06T03:12:55.612Z,0
2017-03-06T03:14:10.419Z,0
2017-03-06T03:15:24.451Z,0
2017-03-06T03:16:38.600Z,0
2017-03-06T03:17:52.754Z,0
2017-03-06T03:19:07.085Z,0
2017-03-06T03:20:21.110Z,0
2017-03-06T03:21:37.477Z,0
2017-03-06T03:22:51.393Z,0
2017-03-06T03:24:05.673Z,0
2017-03-06T03:25:19.634Z,0
2017-03-06T03:26:34.315Z,0
2017-03-06T03:27:48.707Z,0
2017-03-06T03:29:03.782Z,0
2017-03-06T03:30:17.749Z,0
2017-03-06T03:31:32.370Z,0
2017-03-06T03:32:46.341Z,0
2017-03-06T03:34:01.388Z,0
2017-03-06T03:35:15.371Z,0
2017-03-06T03:36:30.079Z,0
2017-03-06T03:37:44.452Z,0
2017-03-06T03:38:58.597Z,0
2017-03-06T03:40:12.568Z,0
2017-03-06T03:41:26.794Z,0
2017-03-06T03:42:41.162Z,0
2017-03-06T03:43:56.197Z,0
2017-03-06T03:45:10.602Z,0
2017-03-06T03:46:25.674Z,0
2017-03-06T03:47:39.593Z,0
2017-03-06T03:48:53.738Z,0
2017-03-06T03:50:08.168Z,0
2017-03-06T03:51:23.377Z,0
2017-03-06T03:52:37.738Z,0
2017-03-06T03:53:51.927Z,0
2017-03-06T03:55:05.840Z,0
2017-03-06T03:56:20.045Z,0
2017-03-06T03:57:40.301Z,0
2017-03-06T03:58:54.897Z,0
2017-03-06T04:01:25.099Z,0
2017-03-06T04:02:39.328Z,0
2017-03-06T04:03:54.138Z,0
2017-03-06T04:05:08.734Z,0
2017-03-06T04:06:22.700Z,0
2017-03-06T04:07:37.604Z,0
2017-03-06T04:08:51.596Z,0
2017-03-06T04:10:06.329Z,0
2017-03-06T04:11:20.252Z,0
2017-03-06T04:12:34.984Z,0
2017-03-06T04:13:48.886Z,0
2017-03-06T04:15:03.360Z,0
2017-03-06T04:16:17.748Z,0
2017-03-06T04:18:16.614Z,0
2017-03-06T04:19:31.332Z,0
2017-03-06T04:20:45.718Z,0
2017-03-06T04:22:00.730Z,0
2017-03-06T04:23:15.157Z,0
2017-03-06T04:24:29.702Z,0
2017-03-06T04:25:44.129Z,0
2017-03-06T04:26:58.748Z,0
2017-03-06T04:28:12.707Z,0
2017-03-06T04:29:27.296Z,0
2017-03-06T04:30:41.694Z,0
2017-03-06T04:31:55.887Z,0
2017-03-06T04:33:09.882Z,0
2017-03-06T04:34:24.373Z,0
2017-03-06T04:35:38.322Z,0
2017-03-06T04:36:52.515Z,0
2017-03-06T04:38:06.513Z,0
2017-03-06T04:39:21.203Z,0
2017-03-06T04:40:37.618Z,0
2017-03-06T04:41:51.627Z,0
2017-03-06T04:43:06.291Z,0
2017-03-06T04:45:14.422Z,0
2017-03-06T04:46:28.483Z,0
2017-03-06T04:47:42.418Z,0
2017-03-06T04:48:57.055Z,0
2017-03-06T04:50:11.031Z,0
2017-03-06T04:51:25.927Z,0
2017-03-06T04:52:39.839Z,0
2017-03-06T04:53:54.459Z,0
2017-03-06T04:55:09.287Z,0
2017-03-06T04:56:23.952Z,0
2017-03-06T04:57:38.198Z,0
2017-03-06T04:58:53.143Z,0
2017-03-06T05:00:07.048Z,0
2017-03-06T05:01:21.366Z,0
2017-03-06T05:02:35.288Z,0
2017-03-06T05:03:50.232Z,0
2017-03-06T05:05:04.124Z,0
2017-03-06T05:06:18.385Z,0
2017-03-06T05:07:33.215Z,0
2017-03-06T05:08:47.797Z,0
2017-03-06T05:10:02.040Z,0
2017-03-06T05:11:16.231Z,0
2017-03-06T05:12:30.149Z,0
2017-03-06T05:13:44.304Z,0
2017-03-06T05:14:59.151Z,0
2017-03-06T05:16:14.636Z,0
2017-03-06T05:17:28.730Z,0
2017-03-06T05:18:42.925Z,0
2017-03-06T05:19:56.908Z,0
2017-03-06T05:21:11.919Z,0
2017-03-06T05:22:26.214Z,0
2017-03-06T05:23:41.034Z,0
2017-03-06T05:24:55.587Z,0
2017-03-06T05:26:10.901Z,0
2017-03-06T05:27:25.465Z,0
2017-03-06T05:28:40.472Z,0
2017-03-06T05:31:13.384Z,0
2017-03-06T05:32:49.509Z,0
2017-03-06T05:34:03.571Z,0
2017-03-06T05:35:18.420Z,0
2017-03-06T05:36:33.921Z,0
2017-03-06T05:37:48.493Z,0
2017-03-06T05:39:03.811Z,0
2017-03-06T05:40:19.841Z,4
2017-03-06T05:41:35.555Z,4
2017-03-06T05:42:50.294Z,4
2017-03-06T05:44:05.094Z,4
2017-03-06T05:45:21.705Z,8
2017-03-06T05:46:35.977Z,4
2017-03-06T05:47:51.760Z,8
2017-03-06T05:49:06.979Z,8
2017-03-06T05:50:21.942Z,12
2017-03-06T05:51:36.411Z,8
2017-03-06T05:52:50.775Z,8
2017-03-06T05:54:05.018Z,12
2017-03-06T05:55:19.162Z,12
2017-03-06T05:56:34.057Z,20
2017-03-06T05:57:49.322Z,24
2017-03-06T05:59:03.394Z,24
2017-03-06T06:00:21.408Z,32
2017-03-06T06:01:35.939Z,32
2017-03-06T06:02:51.212Z,36
2017-03-06T06:04:06.197Z,40
2017-03-06T06:05:21.175Z,44
2017-03-06T06:06:35.579Z,44
2017-03-06T06:07:50.560Z,52
2017-03-06T06:09:06.683Z,60
2017-03-06T06:10:22.070Z,72
2017-03-06T06:11:38.499Z,80
2017-03-06T06:12:52.791Z,92
2017-03-06T06:14:07.634Z,108
2017-03-06T06:15:22.627Z,128
2017-03-06T06:16:36.934Z,144
2017-03-06T06:17:52.403Z,148
2017-03-06T06:19:06.578Z,172
2017-03-06T06:20:21.931Z,172
2017-03-06T06:21:37.678Z,204
2017-03-06T06:22:52.692Z,208
2017-03-06T06:24:07.568Z,240
2017-03-06T06:25:21.542Z,232
2017-03-06T06:26:35.874Z,248
2017-03-06T06:27:51.462Z,240
2017-03-06T06:29:05.449Z,244
2017-03-06T06:30:19.702Z,232
2017-03-06T06:31:34.187Z,224
2017-03-06T06:32:49.011Z,232
2017-03-06T06:34:03.027Z,236
2017-03-06T06:35:17.792Z,236
2017-03-06T06:36:33.749Z,256
2017-03-06T06:38:02.498Z,240
2017-03-06T06:39:17.645Z,244
2017-03-06T06:40:33.901Z,276
2017-03-06T06:41:49.742Z,344
2017-03-06T06:43:03.850Z,344
2017-03-06T06:44:19.735Z,372
2017-03-06T06:45:34.953Z,372
2017-03-06T06:46:51.041Z,320
2017-03-06T06:48:05.092Z,344
2017-03-06T06:49:21.444Z,344
2017-03-06T06:50:36.710Z,336
2017-03-06T06:51:52.554Z,340
2017-03-06T06:53:07.935Z,376
2017-03-06T06:54:23.592Z,364
2017-03-06T06:55:38.918Z,404
2017-03-06T06:56:54.303Z,396
2017-03-06T06:58:08.375Z,424
2017-03-06T06:59:24.277Z,468
2017-03-06T07:00:42.078Z,464
2017-03-06T07:01:57.707Z,492
2017-03-06T07:03:11.758Z,564
2017-03-06T07:04:27.052Z,592
2017-03-06T07:05:41.787Z,716
2017-03-06T07:06:56.331Z,740
2017-03-06T07:08:12.276Z,656
2017-03-06T07:09:26.445Z,748
2017-03-06T07:10:41.355Z,664
2017-03-06T07:11:56.209Z,644
2017-03-06T07:13:10.137Z,656
2017-03-06T07:14:25.743Z,708
2017-03-06T07:15:40.273Z,676
2017-03-06T07:16:55.050Z,680
2017-03-06T07:18:12.321Z,700
2017-03-06T07:19:26.379Z,732
2017-03-06T07:20:41.720Z,712
2017-03-06T07:21:56.256Z,616
2017-03-06T07:23:11.701Z,728
2017-03-06T07:24:26.343Z,904
2017-03-06T07:25:41.693Z,868
2017-03-06T07:26:57.263Z,832
2017-03-06T07:28:11.460Z,732
2017-03-06T07:29:25.719Z,784
2017-03-06T07:30:40.059Z,740
2017-03-06T07:31:55.064Z,704
2017-03-06T07:33:10.601Z,820
2017-03-06T07:34:24.891Z,804
2017-03-06T07:35:40.457Z,900
2017-03-06T07:36:54.483Z,1040
2017-03-06T07:38:09.374Z,1076
2017-03-06T07:39:23.884Z,1000
2017-03-06T07:40:39.663Z,860
2017-03-06T07:43:25.304Z,920
2017-03-06T07:44:40.844Z,768
2017-03-06T07:45:56.662Z,692
2017-03-06T07:47:11.143Z,756
2017-03-06T07:48:25.873Z,668
2017-03-06T07:49:40.556Z,668
2017-03-06T07:51:17.290Z,828
2017-03-06T07:52:32.001Z,912
2017-03-06T07:53:46.025Z,920
2017-03-06T07:55:00.817Z,1088
2017-03-06T07:56:14.944Z,1068
2017-03-06T07:57:29.154Z,1180
2017-03-06T07:58:43.116Z,1540
2017-03-06T07:59:57.337Z,1568
2017-03-06T08:01:12.007Z,1552
2017-03-06T08:02:26.704Z,1552
2017-03-06T08:03:42.698Z,1604
2017-03-06T08:04:56.941Z,1604
2017-03-06T08:06:11.806Z,1800
2017-03-06T08:07:26.130Z,1532
2017-03-06T08:08:42.084Z,1492
2017-03-06T08:09:56.437Z,1424
2017-03-06T08:11:10.611Z,1528
2017-03-06T08:12:25.787Z,1940
2017-03-06T08:13:42.110Z,1720
2017-03-06T08:14:57.123Z,1732
2017-03-06T08:16:12.921Z,1724
2017-03-06T08:17:31.001Z,1896
2017-03-06T08:18:45.507Z,2060
2017-03-06T08:19:59.712Z,1796
2017-03-06T08:21:15.060Z,1828
2017-03-06T08:22:30.572Z,2172
2017-03-06T08:23:45.292Z,2568
2017-03-06T08:24:59.739Z,3080
2017-03-06T08:26:14.012Z,3188
2017-03-06T08:27:45.998Z,3188
2017-03-06T08:29:00.100Z,2652
2017-03-06T08:30:14.903Z,1968
2017-03-06T08:31:29.569Z,1584
2017-03-06T08:32:43.989Z,1420
2017-03-06T08:33:58.439Z,1308
2017-03-06T08:35:12.398Z,1320
2017-03-06T08:36:29.287Z,1356
2017-03-06T08:37:43.412Z,1280
2017-03-06T08:38:57.738Z,1184
2017-03-06T08:40:12.499Z,1276
2017-03-06T08:41:26.776Z,1444
2017-03-06T08:42:40.796Z,1512
2017-03-06T08:43:55.490Z,1464
2017-03-06T08:45:10.377Z,1268
2017-03-06T08:46:24.883Z,1392
2017-03-06T08:47:38.902Z,1444
2017-03-06T08:48:53.562Z,1248
2017-03-06T08:50:08.920Z,952
2017-03-06T08:51:23.596Z,1180
2017-03-06T08:52:38.456Z,1404
2017-03-06T08:53:53.108Z,1556
2017-03-06T08:55:07.633Z,1820
2017-03-06T08:56:22.288Z,1332
2017-03-06T08:57:37.309Z,1380
2017-03-06T08:58:52.872Z,1388
2017-03-06T09:00:09.423Z,1104
2017-03-06T09:01:24.642Z,1240
2017-03-06T09:02:39.544Z,1124
2017-03-06T09:03:54.515Z,1312
2017-03-06T09:05:09.986Z,1280
2017-03-06T09:06:24.297Z,1248
2017-03-06T09:07:39.231Z,1120
2017-03-06T09:08:54.549Z,1064
2017-03-06T09:10:11.215Z,1188
2017-03-06T09:11:27.245Z,1328
2017-03-06T09:12:43.582Z,1068
2017-03-06T09:13:59.099Z,1092
2017-03-06T09:15:14.153Z,1748
2017-03-06T09:16:29.052Z,1864
2017-03-06T09:17:44.891Z,1800
2017-03-06T09:18:59.890Z,2204
2017-03-06T09:20:14.394Z,2896
2017-03-06T09:21:30.577Z,2956
2017-03-06T09:22:44.744Z,2764
2017-03-06T09:23:59.518Z,2896
2017-03-06T09:25:14.072Z,2844
2017-03-06T09:26:29.090Z,3508
2017-03-06T09:27:57.719Z,3264
2017-03-06T09:29:17.438Z,3884
2017-03-06T09:30:34.746Z,4888
2017-03-06T09:31:49.576Z,4360
2017-03-06T09:33:07.890Z,5000
2017-03-06T09:34:25.266Z,4484
2017-03-06T09:35:43.120Z,3280
2017-03-06T09:37:02.859Z,3100
2017-03-06T09:38:24.117Z,2376
2017-03-06T09:39:43.016Z,2020
2017-03-06T09:40:59.244Z,1844
2017-03-06T09:42:13.171Z,1996
2017-03-06T09:43:27.552Z,2032
2017-03-06T09:44:41.996Z,2104
2017-03-06T09:45:56.424Z,2712
2017-03-06T09:47:12.095Z,2084
2017-03-06T09:48:26.586Z,1700
2017-03-06T09:49:41.787Z,2024
2017-03-06T09:50:56.491Z,2044
2017-03-06T09:52:11.256Z,2608
2017-03-06T09:53:25.305Z,2592
2017-03-06T09:54:43.556Z,1792
2017-03-06T09:55:58.143Z,1720
2017-03-06T09:57:13.428Z,2092
2017-03-06T09:58:27.715Z,2384
2017-03-06T09:59:41.699Z,1976
2017-03-06T10:00:57.331Z,1736
2017-03-06T10:02:13.169Z,1964
2017-03-06T10:03:29.506Z,1564
2017-03-06T10:04:46.024Z,1772
2017-03-06T10:06:02.417Z,1952
2017-03-06T10:07:17.493Z,2148
2017-03-06T10:08:58.281Z,2528
2017-03-06T10:10:15.951Z,2100
2017-03-06T10:11:31.492Z,1956
2017-03-06T10:12:47.515Z,1556
2017-03-06T10:14:02.874Z,1856
2017-03-06T10:15:17.529Z,1464
2017-03-06T10:16:32.768Z,1200
2017-03-06T10:17:47.331Z,1120
2017-03-06T10:19:02.272Z,1836
2017-03-06T10:20:17.724Z,2440
2017-03-06T10:21:32.098Z,2300
2017-03-06T10:22:46.180Z,1500
2017-03-06T10:24:01.023Z,1104
2017-03-06T10:25:15.033Z,1172
2017-03-06T10:26:29.774Z,964
2017-03-06T10:28:29.834Z,1564
2017-03-06T10:29:46.451Z,1816
2017-03-06T10:31:02.763Z,2132
2017-03-06T10:32:30.370Z,1400
2017-03-06T10:33:55.579Z,1300
2017-03-06T10:35:11.583Z,1516
2017-03-06T10:36:27.048Z,1072
2017-03-06T10:37:42.693Z,980
2017-03-06T10:39:29.219Z,744
2017-03-06T10:40:56.159Z,672
2017-03-06T10:42:11.014Z,888
2017-03-06T10:43:27.155Z,1112
2017-03-06T10:44:43.225Z,984
2017-03-06T10:45:59.539Z,1304
2017-03-06T10:47:14.028Z,1476
2017-03-06T10:48:29.627Z,1732
2017-03-06T10:49:45.458Z,2084
2017-03-06T10:51:00.529Z,2040
2017-03-06T10:52:16.463Z,2608
2017-03-06T10:53:32.578Z,2972
2017-03-06T10:54:48.274Z,3260
2017-03-06T10:56:03.370Z,2424
2017-03-06T10:57:18.872Z,1924
2017-03-06T10:58:34.061Z,1888
2017-03-06T10:59:49.647Z,1952
2017-03-06T11:01:42.501Z,2168
2017-03-06T11:02:57.778Z,2116
2017-03-06T11:04:12.591Z,2208
2017-03-06T11:05:28.215Z,2324
2017-03-06T11:06:43.237Z,2532
2017-03-06T11:07:58.626Z,2904
2017-03-06T11:09:13.962Z,3564
2017-03-06T11:10:28.498Z,4048
2017-03-06T11:11:43.874Z,4376
2017-03-06T11:12:59.700Z,4344
2017-03-06T11:14:14.825Z,4368
2017-03-06T11:15:32.566Z,4136
2017-03-06T11:16:47.879Z,3716
2017-03-06T11:18:02.319Z,3372
2017-03-06T11:19:17.046Z,3276
2017-03-06T11:20:32.877Z,3140
2017-03-06T11:21:47.776Z,3224
2017-03-06T11:23:01.785Z,3800
2017-03-06T11:24:16.129Z,3812
2017-03-06T11:25:31.585Z,4124
2017-03-06T11:26:46.517Z,4608
2017-03-06T11:28:00.488Z,4828
2017-03-06T11:29:29.318Z,4248
2017-03-06T11:30:44.039Z,4124
2017-03-06T11:31:59.328Z,3672
2017-03-06T11:33:13.562Z,3440
2017-03-06T11:34:28.321Z,3812
2017-03-06T11:35:43.759Z,3924
2017-03-06T11:37:00.409Z,4084
2017-03-06T11:38:14.615Z,3572
2017-03-06T11:39:29.151Z,2712
2017-03-06T11:40:43.993Z,2756
2017-03-06T11:41:59.066Z,2768
2017-03-06T11:43:38.713Z,4048
2017-03-06T11:45:40.592Z,4264
2017-03-06T11:46:55.383Z,3684
2017-03-06T11:48:10.251Z,3328
2017-03-06T11:49:24.969Z,3552
2017-03-06T11:50:39.530Z,3416
2017-03-06T11:51:54.346Z,3508
2017-03-06T11:53:09.281Z,4060
2017-03-06T11:54:23.905Z,3828
2017-03-06T11:55:38.941Z,3508
2017-03-06T11:56:59.110Z,3240
2017-03-06T11:58:13.616Z,2784
2017-03-06T11:59:28.018Z,2788
2017-03-06T12:00:42.337Z,2800
2017-03-06T12:01:56.982Z,2428
2017-03-06T12:03:11.658Z,2556
2017-03-06T12:04:25.851Z,2588
2017-03-06T12:05:40.988Z,2256
2017-03-06T12:06:55.116Z,2412
2017-03-06T12:08:09.283Z,2724
2017-03-06T12:09:23.846Z,2492
2017-03-06T12:10:38.565Z,2100
2017-03-06T12:13:09.297Z,1796
2017-03-06T12:14:24.065Z,1736
2017-03-06T12:15:38.929Z,1612
2017-03-06T12:16:54.428Z,1572
2017-03-06T12:18:09.619Z,1476
2017-03-06T12:19:24.027Z,1516
2017-03-06T12:20:56.294Z,1516
2017-03-06T12:22:10.973Z,1644
2017-03-06T12:23:25.554Z,1972
2017-03-06T12:24:40.018Z,2472
2017-03-06T12:25:55.162Z,2624
2017-03-06T12:27:11.672Z,2932
2017-03-06T12:28:27.270Z,3020
2017-03-06T12:29:44.916Z,3016
2017-03-06T12:31:00.833Z,2920
2017-03-06T12:32:15.692Z,2880
2017-03-06T12:33:40.449Z,2876
2017-03-06T12:34:54.702Z,2900
2017-03-06T12:36:11.934Z,2908
2017-03-06T12:37:27.393Z,2844
2017-03-06T12:38:42.409Z,2804
2017-03-06T12:39:57.554Z,2888
2017-03-06T12:41:11.852Z,3064
2017-03-06T12:42:26.841Z,3152
2017-03-06T12:43:41.986Z,2968
2017-03-06T12:44:57.863Z,2888
2017-03-06T12:46:57.587Z,2720
2017-03-06T12:48:12.008Z,2836
2017-03-06T12:49:26.242Z,2876
2017-03-06T12:50:41.643Z,2732
2017-03-06T12:51:57.007Z,2532
2017-03-06T12:53:12.606Z,2548
2017-03-06T12:54:27.852Z,2512
2017-03-06T12:55:42.337Z,2776
2017-03-06T12:56:57.751Z,3188
2017-03-06T12:58:12.465Z,3396
2017-03-06T12:59:27.707Z,3440
2017-03-06T13:00:44.054Z,3476
2017-03-06T13:01:59.773Z,3484
2017-03-06T13:04:05.470Z,3596
2017-03-06T13:05:22.277Z,3636
2017-03-06T13:06:39.096Z,3376
2017-03-06T13:08:30.757Z,3048
2017-03-06T13:09:46.123Z,3060
2017-03-06T13:11:01.546Z,3032
2017-03-06T13:12:17.256Z,3280
2017-03-06T13:13:32.150Z,3548
2017-03-06T13:14:46.171Z,3632
2017-03-06T13:16:01.459Z,3616
2017-03-06T13:17:15.472Z,3604
2017-03-06T13:18:31.195Z,3508
2017-03-06T13:19:46.337Z,3332
2017-03-06T13:21:00.991Z,3320
2017-03-06T13:22:16.054Z,3256
2017-03-06T13:23:30.072Z,3156
2017-03-06T13:24:44.728Z,3092
2017-03-06T13:25:58.842Z,3092
2017-03-06T13:27:14.379Z,3060
2017-03-06T13:28:29.635Z,3180
2017-03-06T13:29:44.140Z,3064
2017-03-06T13:30:59.170Z,3092
2017-03-06T13:32:14.709Z,3276
2017-03-06T13:33:28.933Z,3544
2017-03-06T13:34:42.977Z,3616
2017-03-06T13:35:58.385Z,3588
2017-03-06T13:37:15.304Z,3560
2017-03-06T13:38:30.358Z,3652
2017-03-06T13:39:45.516Z,3696
2017-03-06T13:40:59.879Z,3632
2017-03-06T13:42:15.062Z,3528
2017-03-06T13:43:32.058Z,3548
2017-03-06T13:44:47.817Z,3648
2017-03-06T13:46:17.389Z,3740
2017-03-06T13:47:32.588Z,3808
2017-03-06T13:48:46.568Z,3816
2017-03-06T13:50:03.183Z,3768
2017-03-06T13:51:18.539Z,3720
2017-03-06T13:52:34.061Z,3644
2017-03-06T13:53:49.293Z,3604
2017-03-06T13:55:04.517Z,3632
2017-03-06T13:56:21.547Z,3636
2017-03-06T13:57:35.814Z,3672
2017-03-06T13:58:51.547Z,3708
2017-03-06T14:00:06.465Z,3748
2017-03-06T14:01:20.696Z,3788
2017-03-06T14:02:35.168Z,3848
2017-03-06T14:03:50.081Z,4028
2017-03-06T14:05:05.536Z,4148
2017-03-06T14:06:21.311Z,4196
2017-03-06T14:07:37.066Z,4080
2017-03-06T14:08:53.596Z,4024
2017-03-06T14:10:10.252Z,4020
2017-03-06T14:11:40.375Z,3868
2017-03-06T14:12:56.186Z,3832
2017-03-06T14:14:11.265Z,4012
2017-03-06T14:15:26.263Z,4004
2017-03-06T14:16:40.997Z,3932
2017-03-06T14:17:55.535Z,3956
2017-03-06T14:19:10.021Z,3872
2017-03-06T14:20:25.675Z,3656
2017-03-06T14:21:40.704Z,3412
2017-03-06T14:22:56.740Z,3272
2017-03-06T14:24:11.937Z,3340
2017-03-06T14:25:26.724Z,3520
2017-03-06T14:26:41.312Z,3376
2017-03-06T14:27:55.918Z,3284
2017-03-06T14:29:12.352Z,3688
2017-03-06T14:30:27.134Z,3564
2017-03-06T14:31:41.829Z,3136
2017-03-06T14:32:56.522Z,3020
2017-03-06T14:34:10.518Z,2404
2017-03-06T14:35:25.263Z,1872
2017-03-06T14:36:39.833Z,2568
2017-03-06T14:37:54.094Z,2684
2017-03-06T14:39:09.049Z,3480
2017-03-06T14:40:24.846Z,3708
2017-03-06T14:41:40.365Z,3312
2017-03-06T14:42:55.334Z,3660
2017-03-06T14:44:12.479Z,3232
2017-03-06T14:45:28.019Z,2900
2017-03-06T14:46:42.749Z,2520
2017-03-06T14:47:57.899Z,2684
2017-03-06T14:49:13.339Z,2712
2017-03-06T14:50:28.802Z,2412
2017-03-06T14:51:44.745Z,1944
2017-03-06T14:52:59.985Z,1968
2017-03-06T14:54:14.109Z,1952
2017-03-06T14:55:40.953Z,1748
2017-03-06T14:56:55.292Z,1648
2017-03-06T14:58:09.559Z,1732
2017-03-06T14:59:25.771Z,1784
2017-03-06T15:00:41.914Z,1828
2017-03-06T15:01:57.179Z,1784
2017-03-06T15:03:11.821Z,1816
2017-03-06T15:04:27.520Z,1808
2017-03-06T15:05:59.388Z,1828
2017-03-06T15:07:15.622Z,1860
2017-03-06T15:08:30.361Z,1872
2017-03-06T15:09:45.475Z,1772
2017-03-06T15:11:01.809Z,1804
2017-03-06T15:12:17.189Z,1872
2017-03-06T15:13:33.212Z,1888
2017-03-06T15:14:49.671Z,1796
2017-03-06T15:16:04.836Z,1716
2017-03-06T15:17:20.142Z,1612
2017-03-06T15:18:37.158Z,1516
2017-03-06T15:19:51.697Z,1416
2017-03-06T15:21:06.479Z,1328
2017-03-06T15:22:21.092Z,1284
2017-03-06T15:23:37.440Z,1264
2017-03-06T15:24:54.170Z,1244
2017-03-06T15:26:10.917Z,1192
2017-03-06T15:27:25.796Z,1132
2017-03-06T15:28:42.819Z,1204
2017-03-06T15:30:21.087Z,1216
2017-03-06T15:31:38.662Z,1224
2017-03-06T15:33:09.343Z,1220
2017-03-06T15:34:31.647Z,1264
2017-03-06T15:36:34.650Z,1256
2017-03-06T15:37:57.530Z,1300
2017-03-06T15:39:23.142Z,1332
2017-03-06T15:40:47.297Z,1380
2017-03-06T15:42:11.979Z,1564
2017-03-06T15:43:48.317Z,1808
2017-03-06T15:45:13.517Z,1860
2017-03-06T15:46:37.310Z,1724
2017-03-06T15:48:00.608Z,1620
2017-03-06T15:49:16.497Z,1612
2017-03-06T15:50:31.385Z,1560
2017-03-06T15:51:45.618Z,1580
2017-03-06T15:53:01.670Z,1492
2017-03-06T15:54:17.957Z,1372
2017-03-06T15:55:33.133Z,1256
2017-03-06T15:56:50.871Z,1240
2017-03-06T15:58:05.737Z,1152
2017-03-06T15:59:22.058Z,1164
2017-03-06T16:00:49.870Z,1300
2017-03-06T16:02:05.242Z,1252
2017-03-06T16:03:19.677Z,1452
2017-03-06T16:04:34.936Z,1460
2017-03-06T16:05:50.372Z,1416
2017-03-06T16:07:06.174Z,1376
2017-03-06T16:08:20.776Z,1292
2017-03-06T16:09:37.545Z,1216
2017-03-06T16:10:53.445Z,1184
2017-03-06T16:12:09.752Z,1096
2017-03-06T16:13:25.295Z,1048
2017-03-06T16:14:40.998Z,1040
2017-03-06T16:15:57.376Z,1052
2017-03-06T16:17:14.755Z,1064
2017-03-06T16:18:30.595Z,988
2017-03-06T16:19:46.132Z,924
2017-03-06T16:21:01.577Z,880
2017-03-06T16:22:16.145Z,840
2017-03-06T16:23:32.719Z,792
2017-03-06T16:24:48.441Z,756
2017-03-06T16:26:02.505Z,780
2017-03-06T16:27:18.412Z,784
2017-03-06T16:28:32.448Z,704
2017-03-06T16:29:49.012Z,664
2017-03-06T16:31:22.826Z,684
2017-03-06T16:32:38.808Z,708
2017-03-06T16:33:53.577Z,708
2017-03-06T16:35:08.371Z,708
2017-03-06T16:36:35.559Z,680
2017-03-06T16:37:50.996Z,648
2017-03-06T16:39:06.281Z,612
2017-03-06T16:40:21.233Z,584
2017-03-06T16:41:35.769Z,560
2017-03-06T16:42:49.964Z,524
2017-03-06T16:44:04.641Z,488
2017-03-06T16:45:20.103Z,452
2017-03-06T16:46:34.082Z,416
2017-03-06T16:47:49.486Z,384
2017-03-06T16:49:03.598Z,352
2017-03-06T16:50:32.203Z,324
2017-03-06T16:51:46.335Z,300
2017-03-06T16:53:02.512Z,276
2017-03-06T16:54:16.680Z,248
2017-03-06T16:55:31.403Z,232
2017-03-06T16:56:46.336Z,216
2017-03-06T16:58:01.987Z,204
2017-03-06T16:59:15.909Z,192
2017-03-06T17:03:13.348Z,156
2017-03-06T17:04:27.747Z,148
2017-03-06T17:05:42.989Z,132
2017-03-06T17:06:56.935Z,124
2017-03-06T17:08:12.424Z,112
2017-03-06T17:09:27.233Z,104
2017-03-06T17:10:42.081Z,96
2017-03-06T17:11:56.647Z,84
2017-03-06T17:13:24.874Z,76
2017-03-06T17:14:39.421Z,68
2017-03-06T17:15:53.542Z,56
2017-03-06T17:17:08.755Z,44
2017-03-06T17:18:24.351Z,40
2017-03-06T17:19:38.336Z,28
2017-03-06T17:20:52.685Z,24
2017-03-06T17:22:06.734Z,20
2017-03-06T17:23:22.058Z,16
2017-03-06T17:24:37.425Z,12
2017-03-06T17:25:52.293Z,8
2017-03-06T17:27:07.218Z,8
2017-03-06T17:28:21.963Z,8
2017-03-06T17:29:37.400Z,4
2017-03-06T17:30:53.613Z,4
2017-03-06T17:32:10.217Z,4
2017-03-06T17:33:24.888Z,4
2017-03-06T17:34:39.381Z,0
2017-03-06T17:35:55.776Z,4
2017-03-06T17:37:10.189Z,4
2017-03-06T17:38:24.768Z,0
2017-03-06T17:39:39.097Z,0
2017-03-06T17:40:54.695Z,0
2017-03-06T17:42:09.913Z,0
2017-03-06T17:43:25.160Z,0
2017-03-06T17:44:40.409Z,0
2017-03-06T17:45:55.053Z,0
2017-03-06T17:52:27.144Z,0
2017-03-06T17:53:42.996Z,0